Time;durP1;ratioP1;P1;durP2;ratioP2;P2;SDS_P1;SDS_P2;PMS_P1;PMS_P2;Temp;Humidity;BMP_temperature;BMP_pressure;BME280_temperature;BME280_humidity;BME280_pressure;Samples;Min_cycle;Max_cycle;Signal;HPM_P1;HPM_P2
2022/12/22 03:27:46;;;;;;;12.67;9.60;;;;;;;;;;4980609;28;20238;-73
2022/12/22 03:30:13;;;;;;;14.13;10.03;;;;;;;;;;4980058;28;20220;-71
2022/12/22 03:32:40;;;;;;;14.20;10.00;;;;;;;;;;4981367;28;20255;-72
2022/12/22 03:35:08;;;;;;;12.60;9.80;;;;;;;;;;4981083;28;20210;-73
2022/12/22 03:37:35;;;;;;;12.83;9.80;;;;;;;;;;4980309;28;20243;-73
2022/12/22 03:40:02;;;;;;;12.47;10.13;;;;;;;;;;4978105;28;20235;-73
2022/12/22 03:48:01;;;;;;;16.77;11.27;;;;;;;;;;4979283;28;20204;-73
2022/12/22 03:50:28;;;;;;;15.63;10.47;;;;;;;;;;4978954;28;20231;-72
2022/12/22 03:52:55;;;;;;;15.93;11.27;;;;;;;;;;4974917;28;20208;-72
2022/12/22 03:55:22;;;;;;;17.57;11.87;;;;;;;;;;4978188;28;20673;-73
2022/12/22 03:57:51;;;;;;;15.97;11.67;;;;;;;;;;4977219;28;20216;-73
2022/12/22 04:00:18;;;;;;;16.40;11.83;;;;;;;;;;4975417;28;20318;-73
2022/12/22 04:02:45;;;;;;;15.43;11.63;;;;;;;;;;4979270;28;20201;-73
2022/12/22 04:05:13;;;;;;;14.23;10.07;;;;;;;;;;4962567;28;21409;-73
2022/12/22 04:07:40;;;;;;;15.13;11.40;;;;;;;;;;4974077;28;20205;-72
2022/12/22 04:12:54;;;;;;;14.73;11.00;;;;;;;;;;4979812;28;20197;-73
2022/12/22 04:15:22;;;;;;;12.43;9.47;;;;;;;;;;4975810;28;20216;-73
2022/12/22 04:17:49;;;;;;;13.20;9.67;;;;;;;;;;4977376;28;20299;-73
2022/12/22 04:20:17;;;;;;;13.23;9.47;;;;;;;;;;4975987;28;20232;-73
2022/12/22 04:22:44;;;;;;;12.97;9.60;;;;;;;;;;4979106;28;20219;-73
2022/12/22 04:25:12;;;;;;;10.37;8.70;;;;;;;;;;4981571;28;20755;-72
2022/12/22 04:27:39;;;;;;;10.67;8.73;;;;;;;;;;4978711;28;20388;-73
2022/12/22 04:30:07;;;;;;;12.30;9.03;;;;;;;;;;4972901;28;20251;-73
2022/12/22 04:32:34;;;;;;;11.67;8.07;;;;;;;;;;4973805;28;20575;-73
2022/12/22 04:35:02;;;;;;;12.77;8.87;;;;;;;;;;4983105;28;20263;-73
2022/12/22 04:37:29;;;;;;;11.60;8.13;;;;;;;;;;4984789;28;20214;-73
2022/12/22 04:39:56;;;;;;;13.00;8.67;;;;;;;;;;4982610;28;20685;-73
2022/12/22 04:42:23;;;;;;;10.97;8.73;;;;;;;;;;4975812;28;20205;-73
2022/12/22 04:44:50;;;;;;;12.37;7.57;;;;;;;;;;4956583;28;20231;-73
2022/12/22 04:47:18;;;;;;;9.63;7.73;;;;;;;;;;4981433;28;20291;-73
2022/12/22 04:49:45;;;;;;;9.80;7.40;;;;;;;;;;4974162;28;20213;-73
2022/12/22 04:52:12;;;;;;;8.17;6.50;;;;;;;;;;4962128;28;20291;-73
2022/12/22 04:54:40;;;;;;;8.27;7.30;;;;;;;;;;4967992;28;20200;-73
2022/12/22 04:57:07;;;;;;;9.97;6.93;;;;;;;;;;4983540;28;20220;-72
2022/12/22 04:59:34;;;;;;;7.53;5.97;;;;;;;;;;4965028;28;20212;-72
2022/12/22 05:02:02;;;;;;;10.43;6.07;;;;;;;;;;4983149;28;20211;-73
2022/12/22 05:04:29;;;;;;;8.70;6.10;;;;;;;;;;4981883;28;20235;-73
2022/12/22 05:06:56;;;;;;;7.27;5.37;;;;;;;;;;4985140;28;20283;-72
2022/12/22 05:09:24;;;;;;;8.67;6.10;;;;;;;;;;4980008;28;20573;-73
2022/12/22 05:11:51;;;;;;;41.77;25.27;;;;;;;;;;4984209;28;20243;-72
2022/12/22 05:14:18;;;;;;;10.17;6.93;;;;;;;;;;4983639;28;20797;-73
2022/12/22 05:16:45;;;;;;;7.07;4.77;;;;;;;;;;4986204;28;20291;-73
2022/12/22 05:19:13;;;;;;;5.97;4.80;;;;;;;;;;4982797;28;20204;-72
2022/12/22 05:21:40;;;;;;;6.17;4.37;;;;;;;;;;4980154;28;20316;-73
2022/12/22 05:24:07;;;;;;;5.80;4.40;;;;;;;;;;4984045;28;20231;-73
2022/12/22 05:26:34;;;;;;;8.43;6.17;;;;;;;;;;4982392;28;20204;-72
2022/12/22 05:29:02;;;;;;;7.80;4.87;;;;;;;;;;4984026;28;20299;-72
2022/12/22 05:31:29;;;;;;;5.43;4.93;;;;;;;;;;4962612;28;20234;-73
2022/12/22 05:33:56;;;;;;;6.10;4.10;;;;;;;;;;4968414;28;20215;-73
2022/12/22 05:36:23;;;;;;;6.03;5.40;;;;;;;;;;4985055;28;20439;-73
2022/12/22 05:38:51;;;;;;;5.30;4.17;;;;;;;;;;4984331;28;20228;-72
2022/12/22 05:41:18;;;;;;;5.83;4.33;;;;;;;;;;4982108;28;21838;-72
2022/12/22 05:43:45;;;;;;;4.20;3.70;;;;;;;;;;4982268;28;20659;-73
2022/12/22 05:46:13;;;;;;;3.20;2.90;;;;;;;;;;4978856;28;20212;-72
2022/12/22 05:48:40;;;;;;;3.40;3.07;;;;;;;;;;4987386;28;20258;-73
2022/12/22 05:51:08;;;;;;;5.40;3.53;;;;;;;;;;4981073;28;20242;-73
2022/12/22 05:53:36;;;;;;;4.17;2.93;;;;;;;;;;4982824;28;20251;-73
2022/12/22 05:56:03;;;;;;;3.43;2.47;;;;;;;;;;4982436;28;20665;-73
2022/12/22 05:58:31;;;;;;;3.03;2.00;;;;;;;;;;4986248;28;20227;-73
2022/12/22 06:00:59;;;;;;;2.73;2.10;;;;;;;;;;4985904;28;20509;-73
2022/12/22 06:03:28;;;;;;;2.17;1.97;;;;;;;;;;4978674;28;20246;-73
2022/12/22 06:05:56;;;;;;;2.17;1.97;;;;;;;;;;4986554;28;20598;-73
2022/12/22 06:08:23;;;;;;;5.27;2.23;;;;;;;;;;4988350;28;20247;-73
2022/12/22 06:10:53;;;;;;;2.50;1.80;;;;;;;;;;4985673;28;20758;-73
2022/12/22 06:13:20;;;;;;;3.63;2.00;;;;;;;;;;4982327;28;20312;-73
2022/12/22 06:15:48;;;;;;;3.97;2.00;;;;;;;;;;4986564;28;20258;-73
2022/12/22 06:18:15;;;;;;;3.73;2.20;;;;;;;;;;4986788;28;20624;-73
2022/12/22 06:20:45;;;;;;;3.33;2.00;;;;;;;;;;4986567;28;20323;-72
2022/12/22 06:23:12;;;;;;;4.33;2.07;;;;;;;;;;4988073;28;20235;-71
2022/12/22 06:25:39;;;;;;;4.37;2.40;;;;;;;;;;4981992;28;20248;-71
2022/12/22 06:28:06;;;;;;;2.93;1.90;;;;;;;;;;4990034;28;20251;-73
2022/12/22 06:30:34;;;;;;;3.60;2.40;;;;;;;;;;4985171;28;20251;-72
2022/12/22 06:33:02;;;;;;;4.93;2.47;;;;;;;;;;4990950;28;20326;-71
2022/12/22 06:35:29;;;;;;;6.23;2.67;;;;;;;;;;4988216;28;20699;-73
2022/12/22 06:37:57;;;;;;;4.23;2.50;;;;;;;;;;4982207;28;20585;-73
2022/12/22 06:40:24;;;;;;;4.07;2.60;;;;;;;;;;4990962;28;20255;-72
2022/12/22 06:43:09;;;;;;;7.00;4.30;;;;;;;;;;4988591;28;20292;-72
2022/12/22 06:45:38;;;;;;;9.33;4.63;;;;;;;;;;4986954;28;20220;-72
2022/12/22 06:48:06;;;;;;;12.27;4.77;;;;;;;;;;4972035;28;21096;-72
2022/12/22 06:50:34;;;;;;;9.90;3.77;;;;;;;;;;4979382;28;20228;-72
2022/12/22 06:53:01;;;;;;;4.03;3.00;;;;;;;;;;4963898;28;20243;-73
2022/12/22 06:55:28;;;;;;;7.47;3.60;;;;;;;;;;4980405;28;20279;-72
2022/12/22 06:57:56;;;;;;;8.63;5.57;;;;;;;;;;4984832;28;20731;-72
2022/12/22 07:00:23;;;;;;;15.60;9.87;;;;;;;;;;4978917;28;20232;-72
2022/12/22 07:02:51;;;;;;;6.83;3.83;;;;;;;;;;4967424;28;20205;-72
2022/12/22 07:05:18;;;;;;;7.43;3.67;;;;;;;;;;4988508;28;20307;-72
2022/12/22 07:07:46;;;;;;;6.50;3.57;;;;;;;;;;4986539;28;20204;-72
2022/12/22 07:10:13;;;;;;;7.23;4.07;;;;;;;;;;4985592;28;20216;-72
2022/12/22 07:12:40;;;;;;;5.07;3.27;;;;;;;;;;4986500;28;20336;-72
2022/12/22 07:15:08;;;;;;;6.07;3.20;;;;;;;;;;4985809;28;20687;-72
2022/12/22 07:17:35;;;;;;;10.00;2.70;;;;;;;;;;4983844;28;20207;-72
2022/12/22 07:20:02;;;;;;;4.07;3.00;;;;;;;;;;4984024;28;20306;-72
2022/12/22 07:22:30;;;;;;;4.77;2.80;;;;;;;;;;4990577;28;20208;-72
2022/12/22 07:24:57;;;;;;;7.00;2.50;;;;;;;;;;4969424;28;20661;-72
2022/12/22 07:27:25;;;;;;;4.70;2.23;;;;;;;;;;4988215;28;20270;-72
2022/12/22 07:29:52;;;;;;;6.50;2.73;;;;;;;;;;4980733;28;20319;-72
2022/12/22 07:32:19;;;;;;;5.77;2.10;;;;;;;;;;4981494;28;20204;-72
2022/12/22 07:34:46;;;;;;;7.73;2.70;;;;;;;;;;4982650;28;20615;-72
2022/12/22 07:37:14;;;;;;;5.13;2.93;;;;;;;;;;4986015;28;20204;-72
2022/12/22 07:39:41;;;;;;;9.33;3.47;;;;;;;;;;4963855;28;20234;-72
2022/12/22 07:44:57;;;;;;;5.80;2.83;;;;;;;;;;4981074;28;20201;-72
2022/12/22 07:47:24;;;;;;;5.53;3.00;;;;;;;;;;4982560;28;20255;-71
2022/12/22 07:52:45;;;;;;;6.17;2.50;;;;;;;;;;4976856;28;20211;-71
2022/12/22 07:55:13;;;;;;;6.97;2.17;;;;;;;;;;4975358;28;20311;-73
2022/12/22 07:57:40;;;;;;;6.20;2.60;;;;;;;;;;4979629;28;20584;-72
2022/12/22 08:00:07;;;;;;;8.47;4.63;;;;;;;;;;4984847;28;20224;-72
2022/12/22 08:02:34;;;;;;;6.43;2.93;;;;;;;;;;4965129;28;20308;-72
2022/12/22 08:05:05;;;;;;;5.10;2.20;;;;;;;;;;4978610;28;21342;-71
2022/12/22 08:07:33;;;;;;;6.50;3.60;;;;;;;;;;4975483;28;20212;-71
2022/12/22 08:10:01;;;;;;;5.57;1.90;;;;;;;;;;4963824;28;20423;-71
2022/12/22 08:12:28;;;;;;;5.27;2.30;;;;;;;;;;4971462;28;20646;-73
2022/12/22 08:14:56;;;;;;;8.27;2.50;;;;;;;;;;4971544;28;20224;-71
2022/12/22 08:17:23;;;;;;;8.40;2.43;;;;;;;;;;4971336;28;20206;-73
2022/12/22 08:19:50;;;;;;;8.00;2.80;;;;;;;;;;4974383;28;20244;-73
2022/12/22 08:22:18;;;;;;;8.03;2.50;;;;;;;;;;4976144;28;20205;-72
2022/12/22 08:24:45;;;;;;;16.17;2.80;;;;;;;;;;4975217;28;20720;-73
2022/12/22 08:27:15;;;;;;;7.17;2.47;;;;;;;;;;4976121;28;20330;-73
2022/12/22 08:29:55;;;;;;;6.50;2.23;;;;;;;;;;4974076;28;20219;-72
2022/12/22 08:32:23;;;;;;;8.10;2.40;;;;;;;;;;4975111;28;20204;-73
2022/12/22 08:34:51;;;;;;;6.80;2.43;;;;;;;;;;4977171;28;20240;-73
2022/12/22 08:37:20;;;;;;;7.27;2.10;;;;;;;;;;4965075;28;20204;-73
2022/12/22 08:39:49;;;;;;;6.20;3.10;;;;;;;;;;4981695;28;20270;-73
2022/12/22 08:42:18;;;;;;;7.20;2.00;;;;;;;;;;4975680;28;21295;-72
2022/12/22 08:44:46;;;;;;;5.80;2.30;;;;;;;;;;4983806;28;20298;-73
2022/12/22 08:47:13;;;;;;;6.57;2.40;;;;;;;;;;4977413;28;20232;-73
2022/12/22 08:49:43;;;;;;;6.23;2.10;;;;;;;;;;4978155;28;21129;-72
2022/12/22 08:52:10;;;;;;;8.23;2.40;;;;;;;;;;4976714;28;20300;-72
2022/12/22 08:54:45;;;;;;;7.27;2.10;;;;;;;;;;4981415;28;20199;-73
2022/12/22 08:57:12;;;;;;;9.47;2.47;;;;;;;;;;4981215;28;20242;-72
2022/12/22 08:59:39;;;;;;;6.40;2.10;;;;;;;;;;4976818;28;20208;-73
2022/12/22 09:02:06;;;;;;;7.27;2.33;;;;;;;;;;4976373;28;20668;-73
2022/12/22 09:04:34;;;;;;;8.23;2.37;;;;;;;;;;4983813;28;20212;-72
2022/12/22 09:07:01;;;;;;;8.53;2.20;;;;;;;;;;4983861;28;20687;-72
2022/12/22 09:09:32;;;;;;;9.03;2.47;;;;;;;;;;4982840;28;20251;-73
2022/12/22 09:12:00;;;;;;;11.73;2.33;;;;;;;;;;4983925;28;20612;-72
2022/12/22 09:14:27;;;;;;;10.23;3.10;;;;;;;;;;4980407;28;20291;-72
2022/12/22 09:16:55;;;;;;;8.73;2.73;;;;;;;;;;4979822;28;20716;-72
2022/12/22 09:19:22;;;;;;;7.57;2.40;;;;;;;;;;4980589;28;20274;-72
2022/12/22 09:21:50;;;;;;;5.83;1.93;;;;;;;;;;4982042;28;20251;-73
2022/12/22 09:24:18;;;;;;;7.30;2.47;;;;;;;;;;4962319;28;20208;-72
2022/12/22 09:26:46;;;;;;;4.13;2.10;;;;;;;;;;4959482;28;20233;-71
2022/12/22 09:29:14;;;;;;;3.60;1.63;;;;;;;;;;4976493;28;20256;-72
2022/12/22 09:31:42;;;;;;;5.80;2.10;;;;;;;;;;4978206;28;20565;-73
2022/12/22 09:34:09;;;;;;;6.77;2.10;;;;;;;;;;4979413;28;20217;-72
2022/12/22 09:36:43;;;;;;;4.97;1.73;;;;;;;;;;4975323;28;20215;-72
2022/12/22 09:39:11;;;;;;;5.37;2.00;;;;;;;;;;4980531;28;20244;-72
2022/12/22 09:41:44;;;;;;;5.77;2.40;;;;;;;;;;4978900;28;20334;-72
2022/12/22 09:44:14;;;;;;;7.77;2.20;;;;;;;;;;4975939;28;20213;-72
2022/12/22 09:46:41;;;;;;;4.83;2.03;;;;;;;;;;4972083;28;20228;-72
2022/12/22 09:49:11;;;;;;;6.57;2.27;;;;;;;;;;4955322;28;20229;-71
2022/12/22 09:51:41;;;;;;;7.57;2.00;;;;;;;;;;4972083;28;20228;-71
2022/12/22 09:54:10;;;;;;;5.73;2.00;;;;;;;;;;4975910;28;20295;-71
2022/12/22 09:56:37;;;;;;;9.13;2.13;;;;;;;;;;4991216;28;20943;-71
2022/12/22 09:59:14;;;;;;;5.80;2.00;;;;;;;;;;4986962;28;20257;-74
2022/12/22 10:01:50;;;;;;;7.83;2.53;;;;;;;;;;4987820;28;20724;-73
2022/12/22 10:04:37;;;;;;;4.20;2.30;;;;;;;;;;4983891;28;20209;-71
2022/12/22 10:07:16;;;;;;;6.20;2.47;;;;;;;;;;4978412;28;20488;-71
2022/12/22 10:09:43;;;;;;;7.00;2.97;;;;;;;;;;4977401;28;20212;-73
2022/12/22 10:12:22;;;;;;;17.00;6.77;;;;;;;;;;4976724;28;20215;-73
2022/12/22 10:14:50;;;;;;;6.70;2.30;;;;;;;;;;4981463;28;20287;-73
2022/12/22 10:17:19;;;;;;;6.07;2.10;;;;;;;;;;4972435;28;20291;-73
2022/12/22 10:19:47;;;;;;;5.00;2.10;;;;;;;;;;4958499;28;20331;-72
2022/12/22 10:22:20;;;;;;;6.30;2.60;;;;;;;;;;4975976;28;20211;-73
2022/12/22 10:24:47;;;;;;;6.33;2.20;;;;;;;;;;4967000;28;20209;-73
2022/12/22 10:27:15;;;;;;;8.20;2.40;;;;;;;;;;4975362;28;20327;-73
2022/12/22 10:29:42;;;;;;;6.97;2.80;;;;;;;;;;4979924;28;20291;-73
2022/12/22 10:32:14;;;;;;;12.97;3.43;;;;;;;;;;4973310;28;20288;-71
2022/12/22 10:35:01;;;;;;;8.00;2.40;;;;;;;;;;4982799;28;20292;-71
2022/12/22 10:37:33;;;;;;;12.97;3.03;;;;;;;;;;4978318;28;20209;-73
2022/12/22 10:40:17;;;;;;;6.13;2.70;;;;;;;;;;4978986;28;20267;-73
2022/12/22 10:42:52;;;;;;;8.23;3.30;;;;;;;;;;4979490;28;20212;-73
2022/12/22 10:45:23;;;;;;;9.00;2.30;;;;;;;;;;4979959;28;20208;-73
2022/12/22 10:47:52;;;;;;;8.57;2.23;;;;;;;;;;4987076;28;20234;-71
2022/12/22 10:50:20;;;;;;;7.63;3.27;;;;;;;;;;4989394;28;20303;-73
2022/12/22 10:52:55;;;;;;;7.97;2.93;;;;;;;;;;4986621;28;20218;-71
2022/12/22 10:55:28;;;;;;;5.77;2.00;;;;;;;;;;4990312;28;20693;-73
2022/12/22 10:58:21;;;;;;;5.53;2.20;;;;;;;;;;4979709;28;20255;-72
2022/12/22 11:01:00;;;;;;;6.53;1.90;;;;;;;;;;4985160;28;20220;-72
2022/12/22 11:03:29;;;;;;;6.77;2.63;;;;;;;;;;4983206;28;20200;-71
2022/12/22 11:05:58;;;;;;;6.90;2.00;;;;;;;;;;4971115;28;20213;-71
2022/12/22 11:08:25;;;;;;;7.00;2.20;;;;;;;;;;4975809;28;20212;-71
2022/12/22 11:10:56;;;;;;;7.57;2.97;;;;;;;;;;4975236;28;20685;-71
2022/12/22 11:13:29;;;;;;;6.07;1.80;;;;;;;;;;4982051;28;20283;-72
2022/12/22 11:16:03;;;;;;;8.87;2.60;;;;;;;;;;4966559;28;20279;-74
2022/12/22 11:18:49;;;;;;;8.67;2.77;;;;;;;;;;4974909;28;20215;-74
2022/12/22 11:21:26;;;;;;;8.13;2.43;;;;;;;;;;4977521;28;20712;-74
2022/12/22 11:24:03;;;;;;;7.03;2.90;;;;;;;;;;4974562;28;20232;-73
2022/12/22 11:26:35;;;;;;;4.63;1.70;;;;;;;;;;4973570;28;20228;-73
2022/12/22 11:29:14;;;;;;;6.63;1.57;;;;;;;;;;4976759;28;20206;-73
2022/12/22 11:31:54;;;;;;;6.23;2.50;;;;;;;;;;4972434;28;20314;-72
2022/12/22 11:34:40;;;;;;;7.63;2.10;;;;;;;;;;4972647;28;20567;-73
2022/12/22 11:37:13;;;;;;;2.73;1.47;;;;;;;;;;4972425;28;20208;-73
2022/12/22 11:39:52;;;;;;;5.63;1.67;;;;;;;;;;4970215;28;20460;-73
2022/12/22 11:42:34;;;;;;;6.77;1.90;;;;;;;;;;4981176;28;20208;-73
2022/12/22 11:45:30;;;;;;;4.27;1.50;;;;;;;;;;4984717;28;20199;-73
2022/12/22 11:48:26;;;;;;;7.17;1.70;;;;;;;;;;4972210;28;20554;-72
2022/12/22 11:50:55;;;;;;;5.00;1.93;;;;;;;;;;4976322;28;20307;-71
2022/12/22 11:53:39;;;;;;;4.90;1.50;;;;;;;;;;4971399;28;20234;-72
2022/12/22 11:56:28;;;;;;;5.67;1.90;;;;;;;;;;4966810;28;20787;-72
2022/12/22 11:58:56;;;;;;;3.03;1.53;;;;;;;;;;4970498;28;20215;-73
2022/12/22 12:01:32;;;;;;;5.43;1.90;;;;;;;;;;4971988;28;20220;-73
2022/12/22 12:04:07;;;;;;;11.23;2.37;;;;;;;;;;4968315;28;20290;-73
2022/12/22 12:06:34;;;;;;;7.83;2.37;;;;;;;;;;4968594;28;20231;-71
2022/12/22 12:09:01;;;;;;;5.97;2.07;;;;;;;;;;4980234;28;20295;-72
2022/12/22 12:11:29;;;;;;;8.37;2.10;;;;;;;;;;4976734;28;20539;-72
2022/12/22 12:14:14;;;;;;;8.43;2.90;;;;;;;;;;4966088;28;20603;-71
2022/12/22 12:16:50;;;;;;;10.47;3.10;;;;;;;;;;4977323;28;20452;-72
2022/12/22 12:19:30;;;;;;;5.77;2.87;;;;;;;;;;4979928;28;20721;-71
2022/12/22 12:21:59;;;;;;;10.53;2.77;;;;;;;;;;4973486;28;20231;-72
2022/12/22 12:24:49;;;;;;;10.43;3.50;;;;;;;;;;4968939;28;20212;-72
2022/12/22 12:27:28;;;;;;;7.63;2.30;;;;;;;;;;4970924;28;20286;-73
2022/12/22 12:30:10;;;;;;;6.57;2.33;;;;;;;;;;4973525;28;20239;-71
2022/12/22 12:33:01;;;;;;;6.33;2.20;;;;;;;;;;4977222;28;20675;-72
2022/12/22 12:35:36;;;;;;;8.93;2.73;;;;;;;;;;4987173;28;20688;-72
2022/12/22 12:38:09;;;;;;;7.20;2.93;;;;;;;;;;4989129;28;20750;-72
2022/12/22 12:41:05;;;;;;;5.50;2.33;;;;;;;;;;4988413;28;20238;-71
2022/12/22 12:43:33;;;;;;;6.87;2.13;;;;;;;;;;4974710;28;20295;-72
2022/12/22 12:46:00;;;;;;;6.47;2.17;;;;;;;;;;4976137;28;20266;-72
2022/12/22 12:48:28;;;;;;;6.90;2.70;;;;;;;;;;4970990;28;20231;-72
2022/12/22 12:50:57;;;;;;;6.87;2.17;;;;;;;;;;4964869;28;20224;-72
2022/12/22 12:53:28;;;;;;;8.53;2.30;;;;;;;;;;4974970;28;20228;-71
2022/12/22 12:55:57;;;;;;;9.17;3.23;;;;;;;;;;4980910;28;20208;-74
2022/12/22 12:58:36;;;;;;;8.07;2.00;;;;;;;;;;4970664;28;20197;-72
2022/12/22 13:01:04;;;;;;;8.83;2.53;;;;;;;;;;4979492;28;20273;-73
2022/12/22 13:03:33;;;;;;;7.43;2.20;;;;;;;;;;4986206;28;20208;-72
2022/12/22 13:06:59;;;;;;;6.73;2.10;;;;;;;;;;4980978;28;20583;-71
2022/12/22 13:09:29;;;;;;;5.80;2.00;;;;;;;;;;4922237;29;20704;-71
2022/12/22 13:12:32;;;;;;;7.53;1.73;;;;;;;;;;4927991;29;20210;-72
2022/12/22 13:15:00;;;;;;;5.40;1.80;;;;;;;;;;4971258;28;20627;-72
2022/12/22 13:17:37;;;;;;;6.40;2.00;;;;;;;;;;4978656;28;20207;-72
2022/12/22 13:20:05;;;;;;;6.17;2.03;;;;;;;;;;4974043;28;20232;-72
2022/12/22 13:22:33;;;;;;;8.50;2.10;;;;;;;;;;4967751;28;20218;-72
2022/12/22 13:25:02;;;;;;;11.10;2.77;;;;;;;;;;4969438;28;20310;-73
2022/12/22 13:27:30;;;;;;;6.60;2.37;;;;;;;;;;4963782;28;20254;-72
2022/12/22 13:29:58;;;;;;;6.10;1.83;;;;;;;;;;4967808;28;20523;-73
2022/12/22 13:32:28;;;;;;;8.00;2.67;;;;;;;;;;4962872;28;20328;-72
2022/12/22 13:35:01;;;;;;;4.20;1.80;;;;;;;;;;4957630;28;20739;-72
2022/12/22 13:37:49;;;;;;;5.67;1.90;;;;;;;;;;4959030;28;20208;-72
2022/12/22 13:40:22;;;;;;;6.07;2.07;;;;;;;;;;4957217;28;20320;-72
2022/12/22 13:42:54;;;;;;;7.77;1.93;;;;;;;;;;4952380;28;20240;-72
2022/12/22 13:45:22;;;;;;;7.20;2.20;;;;;;;;;;4958065;28;20657;-72
2022/12/22 13:47:49;;;;;;;10.40;2.20;;;;;;;;;;4954307;28;20229;-72
2022/12/22 13:50:22;;;;;;;9.23;2.20;;;;;;;;;;4960093;28;20442;-71
2022/12/22 13:52:50;;;;;;;9.67;2.50;;;;;;;;;;4962847;28;21688;-73
2022/12/22 13:55:20;;;;;;;7.67;2.30;;;;;;;;;;4958178;28;20478;-73
2022/12/22 13:57:47;;;;;;;9.97;2.50;;;;;;;;;;4952915;28;20666;-72
2022/12/22 14:00:24;;;;;;;9.00;2.20;;;;;;;;;;4945270;28;20231;-74
2022/12/22 14:02:52;;;;;;;7.33;2.27;;;;;;;;;;4944010;28;20244;-74
2022/12/22 14:05:20;;;;;;;9.00;2.40;;;;;;;;;;4935949;28;20581;-71
2022/12/22 14:08:13;;;;;;;9.60;2.20;;;;;;;;;;4944623;28;20271;-72
2022/12/22 14:10:43;;;;;;;6.17;2.20;;;;;;;;;;4942524;28;20232;-72
2022/12/22 14:13:14;;;;;;;9.67;2.63;;;;;;;;;;4945721;28;20366;-72
2022/12/22 14:15:42;;;;;;;4.50;2.00;;;;;;;;;;4955195;28;20196;-72
2022/12/22 14:18:14;;;;;;;6.67;2.30;;;;;;;;;;4954207;28;20218;-71
2022/12/22 14:20:43;;;;;;;11.57;2.90;;;;;;;;;;4925121;28;20350;-71
2022/12/22 14:23:19;;;;;;;5.43;2.97;;;;;;;;;;4945792;28;20209;-72
2022/12/22 14:25:47;;;;;;;8.80;2.47;;;;;;;;;;4941513;28;20208;-72
2022/12/22 14:28:14;;;;;;;7.37;2.50;;;;;;;;;;4955183;28;21590;-72
2022/12/22 14:30:44;;;;;;;9.07;2.37;;;;;;;;;;4942177;28;20564;-74
2022/12/22 14:33:14;;;;;;;9.87;2.47;;;;;;;;;;4960335;28;20537;-74
2022/12/22 14:35:42;;;;;;;10.00;2.27;;;;;;;;;;4976159;28;20208;-74
2022/12/22 14:38:18;;;;;;;10.43;2.40;;;;;;;;;;4969600;28;20310;-74
2022/12/22 14:40:46;;;;;;;7.97;2.50;;;;;;;;;;4971000;28;20259;-73
2022/12/22 14:43:27;;;;;;;6.63;1.93;;;;;;;;;;4955694;28;20213;-74
2022/12/22 14:46:06;;;;;;;11.33;2.80;;;;;;;;;;4971391;28;20288;-73
2022/12/22 14:48:36;;;;;;;10.20;2.20;;;;;;;;;;4980808;28;20231;-73
2022/12/22 14:51:04;;;;;;;9.23;2.07;;;;;;;;;;4983902;28;20216;-74
2022/12/22 14:53:37;;;;;;;10.17;2.70;;;;;;;;;;4975636;28;20250;-73
2022/12/22 14:56:04;;;;;;;11.03;2.50;;;;;;;;;;4947294;28;20204;-73
2022/12/22 14:58:34;;;;;;;11.50;2.87;;;;;;;;;;4950896;28;20214;-73
2022/12/22 15:01:16;;;;;;;7.80;2.13;;;;;;;;;;4942644;28;20696;-73
2022/12/22 15:03:45;;;;;;;9.50;2.23;;;;;;;;;;4944677;28;20885;-73
2022/12/22 15:06:27;;;;;;;11.43;2.67;;;;;;;;;;4942859;28;20215;-73
2022/12/22 15:09:05;;;;;;;9.40;2.43;;;;;;;;;;4952314;28;20344;-72
2022/12/22 15:11:33;;;;;;;12.73;2.63;;;;;;;;;;4965863;28;20239;-71
2022/12/22 15:14:01;;;;;;;8.57;2.50;;;;;;;;;;4961627;28;20736;-72
2022/12/22 15:16:28;;;;;;;7.93;2.67;;;;;;;;;;4932996;28;20209;-72
2022/12/22 15:18:55;;;;;;;8.47;2.10;;;;;;;;;;4938193;28;20235;-72
2022/12/22 15:21:23;;;;;;;9.00;2.40;;;;;;;;;;4936268;28;20225;-71
2022/12/22 15:23:51;;;;;;;7.43;2.80;;;;;;;;;;4932576;28;21147;-72
2022/12/22 15:26:19;;;;;;;11.37;3.30;;;;;;;;;;4911792;28;20442;-72
2022/12/22 15:28:46;;;;;;;9.90;2.60;;;;;;;;;;4925646;28;20232;-72
2022/12/22 15:31:14;;;;;;;8.57;2.77;;;;;;;;;;4915866;28;20228;-73
2022/12/22 15:33:42;;;;;;;10.83;2.70;;;;;;;;;;4920174;28;22321;-73
2022/12/22 15:36:10;;;;;;;9.30;2.57;;;;;;;;;;4917344;28;20208;-72
2022/12/22 15:38:38;;;;;;;10.97;2.33;;;;;;;;;;4931405;28;20315;-72
2022/12/22 15:41:05;;;;;;;7.80;2.50;;;;;;;;;;4928236;28;20223;-72
2022/12/22 15:43:34;;;;;;;6.97;2.50;;;;;;;;;;4935998;28;20219;-72
2022/12/22 15:46:21;;;;;;;10.13;2.57;;;;;;;;;;4930510;28;20745;-72
2022/12/22 15:48:49;;;;;;;6.83;2.10;;;;;;;;;;4932571;28;20235;-72
2022/12/22 15:51:25;;;;;;;11.00;2.13;;;;;;;;;;4943809;28;20224;-73
2022/12/22 15:53:53;;;;;;;7.50;2.43;;;;;;;;;;4932464;28;20275;-71
2022/12/22 15:56:23;;;;;;;9.03;2.20;;;;;;;;;;4921031;28;20248;-72
2022/12/22 15:58:50;;;;;;;8.83;2.37;;;;;;;;;;4933932;28;20226;-72
2022/12/22 16:01:18;;;;;;;13.00;2.77;;;;;;;;;;4937580;28;20354;-72
2022/12/22 16:03:45;;;;;;;13.57;2.87;;;;;;;;;;4931183;28;20350;-72
2022/12/22 16:06:14;;;;;;;8.00;2.30;;;;;;;;;;4940439;28;20746;-72
2022/12/22 16:08:42;;;;;;;8.87;2.77;;;;;;;;;;4932182;28;21289;-72
2022/12/22 16:11:10;;;;;;;8.23;2.47;;;;;;;;;;4933341;28;20231;-72
2022/12/22 16:13:37;;;;;;;9.73;2.50;;;;;;;;;;4937369;28;22508;-72
2022/12/22 16:16:04;;;;;;;8.53;2.70;;;;;;;;;;4929084;28;20213;-71
2022/12/22 16:18:32;;;;;;;10.13;2.37;;;;;;;;;;4923157;28;20212;-72
2022/12/22 16:21:06;;;;;;;11.83;2.50;;;;;;;;;;4939599;28;21101;-71
2022/12/22 16:23:34;;;;;;;6.23;2.67;;;;;;;;;;4926217;28;20239;-73
2022/12/22 16:26:03;;;;;;;9.40;2.60;;;;;;;;;;4924807;28;20851;-73
2022/12/22 16:28:31;;;;;;;9.23;2.53;;;;;;;;;;4933611;28;22421;-72
2022/12/22 16:31:00;;;;;;;7.03;2.43;;;;;;;;;;4938660;28;20232;-72
2022/12/22 16:33:27;;;;;;;9.60;2.80;;;;;;;;;;4935479;28;20227;-73
2022/12/22 16:35:55;;;;;;;8.10;2.73;;;;;;;;;;4942365;28;20215;-73
2022/12/22 16:38:22;;;;;;;6.97;2.07;;;;;;;;;;4945213;28;20220;-73
2022/12/22 16:40:51;;;;;;;10.13;3.20;;;;;;;;;;4941100;28;20366;-73
2022/12/22 16:43:18;;;;;;;14.10;3.37;;;;;;;;;;4935292;28;20242;-73
2022/12/22 16:46:04;;;;;;;13.70;3.10;;;;;;;;;;4935221;28;21035;-73
2022/12/22 16:48:39;;;;;;;8.90;2.50;;;;;;;;;;4944300;28;20368;-73
2022/12/22 16:51:07;;;;;;;10.20;3.30;;;;;;;;;;4925293;28;20227;-73
2022/12/22 16:53:34;;;;;;;10.27;2.87;;;;;;;;;;4943570;28;22111;-73
2022/12/22 16:56:01;;;;;;;11.27;3.60;;;;;;;;;;4951469;28;20204;-73
2022/12/22 16:58:28;;;;;;;10.57;2.97;;;;;;;;;;4955467;28;20688;-73
2022/12/22 17:00:55;;;;;;;10.13;2.43;;;;;;;;;;4951262;28;20227;-72
2022/12/22 17:03:24;;;;;;;11.17;3.37;;;;;;;;;;4948586;28;22573;-72
2022/12/22 17:05:57;;;;;;;11.03;2.70;;;;;;;;;;4957719;28;20533;-72
2022/12/22 17:08:26;;;;;;;10.70;2.97;;;;;;;;;;4957333;28;20317;-73
2022/12/22 17:10:56;;;;;;;9.23;3.10;;;;;;;;;;4963399;28;20395;-72
2022/12/22 17:13:23;;;;;;;15.30;3.37;;;;;;;;;;4967984;28;20308;-72
2022/12/22 17:15:50;;;;;;;11.67;3.10;;;;;;;;;;4965607;28;20300;-72
2022/12/22 17:18:23;;;;;;;14.27;3.00;;;;;;;;;;4945782;28;20366;-72
2022/12/22 17:20:51;;;;;;;18.17;3.03;;;;;;;;;;4916443;28;20330;-72
2022/12/22 17:23:29;;;;;;;13.70;3.80;;;;;;;;;;4924550;28;21398;-72
2022/12/22 17:25:57;;;;;;;11.60;2.93;;;;;;;;;;4931555;28;20346;-72
2022/12/22 17:28:24;;;;;;;9.07;3.00;;;;;;;;;;4927484;28;20228;-72
2022/12/22 17:30:52;;;;;;;11.73;3.13;;;;;;;;;;4916826;28;21282;-72
2022/12/22 17:33:19;;;;;;;8.87;2.97;;;;;;;;;;4929143;28;20215;-72
2022/12/22 17:35:47;;;;;;;7.47;2.73;;;;;;;;;;4930287;28;20215;-72
2022/12/22 17:38:15;;;;;;;10.90;2.87;;;;;;;;;;4929491;28;20212;-72
2022/12/22 17:40:42;;;;;;;14.80;3.07;;;;;;;;;;4947840;28;20235;-72
2022/12/22 17:43:13;;;;;;;10.10;3.20;;;;;;;;;;4961329;28;20224;-73
2022/12/22 17:45:42;;;;;;;17.47;3.70;;;;;;;;;;4970274;28;20319;-73
2022/12/22 17:48:09;;;;;;;15.20;3.43;;;;;;;;;;4980861;28;20577;-73
2022/12/22 17:50:36;;;;;;;18.90;3.10;;;;;;;;;;4987310;28;20224;-74
2022/12/22 17:53:04;;;;;;;16.00;4.57;;;;;;;;;;4990161;28;20283;-73
2022/12/22 17:55:31;;;;;;;22.73;5.07;;;;;;;;;;4982455;28;20213;-72
2022/12/22 17:58:18;;;;;;;13.63;3.40;;;;;;;;;;4956352;28;20212;-72
2022/12/22 18:00:46;;;;;;;14.43;3.40;;;;;;;;;;4957202;28;20227;-73
2022/12/22 18:03:14;;;;;;;18.23;3.67;;;;;;;;;;4957385;28;20286;-73
2022/12/22 18:05:46;;;;;;;10.50;3.40;;;;;;;;;;4957870;28;20303;-73
2022/12/22 18:08:16;;;;;;;17.30;3.83;;;;;;;;;;4973271;28;20678;-74
2022/12/22 18:10:44;;;;;;;13.07;3.77;;;;;;;;;;4956852;28;20429;-73
2022/12/22 18:13:16;;;;;;;13.13;4.03;;;;;;;;;;4954549;28;20196;-73
2022/12/22 18:15:43;;;;;;;13.63;4.10;;;;;;;;;;4956207;28;20587;-72
2022/12/22 18:18:15;;;;;;;12.93;3.80;;;;;;;;;;4956714;28;20525;-71
2022/12/22 18:20:42;;;;;;;12.87;3.57;;;;;;;;;;4959613;28;20232;-72
2022/12/22 18:23:19;;;;;;;15.70;4.00;;;;;;;;;;4955974;28;20621;-72
2022/12/22 18:25:46;;;;;;;18.73;4.90;;;;;;;;;;4960494;28;20218;-72
2022/12/22 18:28:15;;;;;;;10.13;3.30;;;;;;;;;;4954383;28;20235;-72
2022/12/22 18:30:42;;;;;;;14.37;3.33;;;;;;;;;;4950014;28;20331;-72
2022/12/22 18:33:09;;;;;;;16.63;3.70;;;;;;;;;;4950483;28;20200;-72
2022/12/22 18:35:37;;;;;;;17.73;3.63;;;;;;;;;;4957379;28;20642;-72
2022/12/22 18:38:04;;;;;;;15.67;4.30;;;;;;;;;;4961363;28;21285;-73